createdAt,value
2022-09-12T00:05:14.133Z,98.08
2022-09-12T00:10:45.897Z,97.88
2022-09-12T00:16:17.737Z,98.62
2022-09-12T00:21:53.689Z,99.08
2022-09-12T00:27:25.517Z,99.11
2022-09-12T00:32:57.184Z,98.65
2022-09-12T00:38:28.933Z,98.4
2022-09-12T00:44:00.597Z,98.87
2022-09-12T00:49:32.325Z,99.68
2022-09-12T00:55:04.148Z,98.86
2022-09-12T01:00:35.757Z,98.68
2022-09-12T01:06:07.693Z,99.38
2022-09-12T01:11:39.245Z,99.34
2022-09-12T01:17:11.229Z,98.81
2022-09-12T01:22:49.117Z,98.96
2022-09-12T01:28:20.922Z,99.02
2022-09-12T01:33:52.494Z,98.59
2022-09-12T01:39:24.213Z,98.99
2022-09-12T01:44:56.548Z,99.19
2022-09-12T01:50:27.761Z,98.74
2022-09-12T01:55:59.450Z,98.67
2022-09-12T02:01:31.263Z,98.66
2022-09-12T02:07:02.904Z,98.81
2022-09-12T02:12:35.089Z,98.89
2022-09-12T02:18:06.333Z,98.68
2022-09-12T02:23:44.473Z,98.29
2022-09-12T02:29:16.232Z,98.12
2022-09-12T02:34:47.889Z,98.13
2022-09-12T02:40:19.753Z,98.32
2022-09-12T02:45:51.455Z,97.93
2022-09-12T02:51:24.071Z,98.74
2022-09-12T02:56:54.832Z,98.49
2022-09-12T03:02:26.565Z,98.21
2022-09-12T03:07:58.214Z,98.69
2022-09-12T03:13:29.989Z,98.62
2022-09-12T03:19:01.697Z,98.52
2022-09-12T03:24:37.822Z,98.36
2022-09-12T03:30:09.548Z,99.6
2022-09-12T03:35:41.268Z,99.62
2022-09-12T03:41:12.976Z,99.44
2022-09-12T03:46:44.697Z,99.23
2022-09-12T03:52:16.500Z,98.74
2022-09-12T03:57:48.176Z,98.46
2022-09-12T04:03:19.862Z,98.97
2022-09-12T04:08:51.948Z,98.86
2022-09-12T04:14:23.324Z,99.34
2022-09-12T04:19:55.028Z,99.2
2022-09-12T04:25:31.171Z,98.85
2022-09-12T04:31:02.921Z,98.67
2022-09-12T04:36:34.532Z,98.72
2022-09-12T04:42:06.248Z,98.22
2022-09-12T04:47:38.005Z,99.22
2022-09-12T04:53:10.048Z,99.07
2022-09-12T04:58:41.465Z,98.5
2022-09-12T05:04:13.149Z,98.85
2022-09-12T05:09:44.922Z,98.95
2022-09-12T05:15:16.673Z,98.3
2022-09-12T05:20:48.334Z,98.05
2022-09-12T05:26:26.464Z,97.54
2022-09-12T05:31:58.202Z,98.19
2022-09-12T05:37:29.926Z,98.97
2022-09-12T05:43:01.610Z,100.0
2022-09-12T05:48:33.409Z,100.0
2022-09-12T05:54:05.077Z,100.0
2022-09-12T05:59:36.814Z,100.0
2022-09-12T06:05:08.538Z,100.0
2022-09-12T06:10:40.236Z,100.0
2022-09-12T06:16:11.995Z,100.0
2022-09-12T06:21:43.978Z,100.0
2022-09-12T06:27:21.840Z,100.0
2022-09-12T06:32:53.533Z,100.0
2022-09-12T06:38:25.273Z,100.0
2022-09-12T06:43:56.960Z,100.0
2022-09-12T06:49:28.714Z,99.9
2022-09-12T06:55:00.486Z,99.09
2022-09-12T07:00:32.213Z,97.51
2022-09-12T07:06:03.981Z,95.43
2022-09-12T07:11:35.601Z,93.75
2022-09-12T07:17:07.449Z,92.6
2022-09-12T07:22:39.181Z,92.74
2022-09-12T07:28:15.353Z,92.85
2022-09-12T07:33:54.505Z,93.68
2022-09-12T07:39:18.882Z,91.21
2022-09-12T07:44:50.402Z,88.77
2022-09-12T07:50:22.306Z,91.43
2022-09-12T07:55:53.820Z,87.98
2022-09-12T08:01:25.618Z,87.21
2022-09-12T08:06:57.298Z,89.48
2022-09-12T08:12:29.018Z,85.72
2022-09-12T08:18:00.737Z,84.67
2022-09-12T08:23:32.421Z,84.22
2022-09-12T08:29:10.569Z,83.67
2022-09-12T08:34:42.282Z,83.23
2022-09-12T08:40:14.184Z,81.58
2022-09-12T08:45:45.832Z,82.72
2022-09-12T08:51:17.505Z,79.63
2022-09-12T08:56:49.250Z,80.72
2022-09-12T09:02:21.038Z,79.54
2022-09-12T09:07:52.698Z,79.08
2022-09-12T09:13:24.423Z,80.39
2022-09-12T09:18:56.130Z,78.6
2022-09-12T09:24:28.005Z,77.46
2022-09-12T09:30:03.974Z,75.57
2022-09-12T09:35:37.042Z,76.82
2022-09-12T09:41:07.488Z,73.83
2022-09-12T09:46:39.240Z,74.19
2022-09-12T09:52:10.833Z,71.53
2022-09-12T09:57:42.552Z,69.64
2022-09-12T10:03:14.674Z,70.84
2022-09-12T10:08:46.659Z,71.09
2022-09-12T10:14:17.745Z,69.54
2022-09-12T10:20:20.793Z,66.97
2022-09-12T10:25:21.226Z,67.08
2022-09-12T10:30:57.442Z,66.55
2022-09-12T10:36:29.057Z,64.72
2022-09-12T10:42:00.746Z,63.99
2022-09-12T10:47:32.464Z,64.65
2022-09-12T10:53:04.211Z,65.2
2022-09-12T10:58:35.968Z,64.18
2022-09-12T11:04:07.770Z,64.57
2022-09-12T11:09:39.365Z,63.33
2022-09-12T11:15:11.165Z,63.04
2022-09-12T11:20:42.817Z,63.71
2022-09-12T11:26:14.572Z,62.65
2022-09-12T11:31:50.684Z,60.13
2022-09-12T11:37:22.449Z,61.53
2022-09-12T11:42:54.157Z,59.75
2022-09-12T11:48:25.777Z,59.54
2022-09-12T11:53:57.533Z,58.83
2022-09-12T11:59:29.257Z,58.07
2022-09-12T12:05:00.938Z,56.61
2022-09-12T12:10:32.689Z,59.11
2022-09-12T12:16:04.588Z,57.45
2022-09-12T12:21:36.276Z,57.26
2022-09-12T12:27:07.915Z,56.87
2022-09-12T12:32:44.064Z,55.08
2022-09-12T12:38:15.698Z,55.01
2022-09-12T12:43:47.832Z,55.57
2022-09-12T12:49:19.166Z,55.38
2022-09-12T12:54:51.205Z,55.82
2022-09-12T13:00:22.538Z,55.9
2022-09-12T13:05:54.445Z,54.4
2022-09-12T13:11:26.060Z,54.7
2022-09-12T13:16:57.786Z,54.9
2022-09-12T13:22:29.501Z,54.56
2022-09-12T13:28:01.224Z,55.49
2022-09-12T13:33:37.361Z,54.75
2022-09-12T13:39:09.247Z,55.6
2022-09-12T13:44:40.857Z,56.6
2022-09-12T13:50:12.538Z,55.65
2022-09-12T13:55:44.217Z,56.32
2022-09-12T14:01:16.141Z,55.88
2022-09-12T14:06:47.761Z,54.32
2022-09-12T14:12:19.447Z,54.6
2022-09-12T14:17:51.165Z,53.75
2022-09-12T14:23:22.918Z,53.31
2022-09-12T14:28:54.657Z,54.52
2022-09-12T14:34:32.733Z,55.0
2022-09-12T14:40:04.699Z,54.7
2022-09-12T14:45:36.166Z,53.29
2022-09-12T14:51:07.897Z,54.54
2022-09-12T14:56:39.890Z,53.5
2022-09-12T15:02:11.354Z,52.63
2022-09-12T15:07:43.057Z,53.47
2022-09-12T15:13:14.836Z,54.93
2022-09-12T15:18:46.453Z,53.66
2022-09-12T15:24:18.187Z,53.96
2022-09-12T15:29:49.946Z,54.06
2022-09-12T15:35:26.105Z,53.93
2022-09-12T15:40:57.773Z,53.24
2022-09-12T15:46:29.537Z,53.25
2022-09-12T15:52:01.182Z,53.68
2022-09-12T15:57:32.978Z,54.09
2022-09-12T16:03:04.759Z,54.44
2022-09-12T16:08:36.490Z,53.6
2022-09-12T16:14:08.181Z,54.36
2022-09-12T16:19:39.831Z,54.92
2022-09-12T16:25:11.562Z,55.48
2022-09-12T16:30:43.482Z,55.65
2022-09-12T16:36:19.401Z,56.75
2022-09-12T16:41:51.146Z,57.99
2022-09-12T16:47:22.905Z,57.33
2022-09-12T16:52:54.601Z,58.23
2022-09-12T16:58:26.342Z,59.67
2022-09-12T17:03:58.094Z,60.13
2022-09-12T17:09:29.825Z,60.53
2022-09-12T17:15:01.477Z,59.98
2022-09-12T17:20:33.281Z,60.9
2022-09-12T17:26:05.037Z,62.14
2022-09-12T17:31:36.861Z,63.87
2022-09-12T17:37:12.880Z,65.69
2022-09-12T17:42:44.561Z,65.85
2022-09-12T17:48:16.340Z,66.58
2022-09-12T17:53:48.243Z,66.53
2022-09-12T17:59:19.767Z,67.49
2022-09-12T18:04:51.510Z,67.31
2022-09-12T18:10:23.233Z,68.84
2022-09-12T18:15:55.026Z,67.02
2022-09-12T18:21:26.657Z,68.74
2022-09-12T18:26:58.559Z,69.64
2022-09-12T18:32:30.222Z,68.49
2022-09-12T18:38:08.207Z,69.21
2022-09-12T18:43:39.941Z,70.27
2022-09-12T18:49:11.757Z,69.7
2022-09-12T18:54:43.487Z,67.52
2022-09-12T19:00:15.148Z,68.37
2022-09-12T19:05:46.832Z,67.56
2022-09-12T19:11:18.516Z,69.77
2022-09-12T19:16:50.710Z,72.27
2022-09-12T19:22:22.014Z,72.25
2022-09-12T19:27:53.769Z,72.25
2022-09-12T19:33:25.433Z,72.43
2022-09-12T19:39:03.777Z,71.06
2022-09-12T19:44:35.330Z,69.33
2022-09-12T19:50:07.017Z,68.71
2022-09-12T19:55:38.844Z,71.96
2022-09-12T20:01:10.586Z,73.11
2022-09-12T20:06:42.197Z,71.68
2022-09-12T20:12:14.003Z,73.74
2022-09-12T20:17:45.662Z,74.75
2022-09-12T20:23:17.435Z,73.86
2022-09-12T20:28:49.276Z,75.93
2022-09-12T20:34:20.933Z,73.01
2022-09-12T20:40:01.107Z,73.3
2022-09-12T20:45:32.749Z,73.02
2022-09-12T20:51:04.502Z,73.07
2022-09-12T20:56:36.193Z,73.02
2022-09-12T21:02:08.187Z,73.1
2022-09-12T21:07:39.637Z,73.41
2022-09-12T21:13:11.539Z,73.24
2022-09-12T21:18:43.118Z,73.66
2022-09-12T21:24:14.881Z,73.57
2022-09-12T21:29:46.552Z,73.72
2022-09-12T21:35:18.255Z,73.48
2022-09-12T21:40:54.421Z,75.98
2022-09-12T21:46:26.312Z,74.71
2022-09-12T21:51:57.853Z,74.87
2022-09-12T21:57:29.573Z,74.29
2022-09-12T22:03:01.302Z,74.39
2022-09-12T22:08:33.045Z,75.11
2022-09-12T22:14:05.087Z,75.86
2022-09-12T22:19:36.472Z,76.21
2022-09-12T22:25:08.177Z,76.0
2022-09-12T22:30:40.401Z,76.24
2022-09-12T22:36:11.598Z,76.45
2022-09-12T22:41:47.728Z,76.67
2022-09-12T22:47:19.620Z,76.22
2022-09-12T22:52:51.209Z,76.85
2022-09-12T22:58:22.909Z,76.69
2022-09-12T23:03:54.637Z,77.03
2022-09-12T23:09:26.785Z,78.36
2022-09-12T23:14:58.071Z,77.99
2022-09-12T23:20:29.835Z,79.96
2022-09-12T23:26:01.822Z,79.32
2022-09-12T23:31:33.382Z,78.59
2022-09-12T23:37:05.019Z,78.13
2022-09-12T23:42:41.101Z,79.07
2022-09-12T23:48:12.782Z,79.18
2022-09-12T23:53:44.736Z,79.01
2022-09-12T23:59:16.236Z,79.23
